Time;durP1;ratioP1;P1;durP2;ratioP2;P2;SDS_P1;SDS_P2;PMS_P1;PMS_P2;Temp;Humidity;BMP_temperature;BMP_pressure;BME280_temperature;BME280_humidity;BME280_pressure;Samples;Min_cycle;Max_cycle;Signal;HPM_P1;HPM_P2
2022/10/27 00:02:24;;;;;;;7.50;5.90;;;16.60;87.50;;;19.20;62.48;102070.19;4916141;29;20226;-63
2022/10/27 00:04:51;;;;;;;7.33;5.83;;;16.60;87.40;;;19.17;62.15;102073.22;4916460;29;20202;-63
2022/10/27 00:07:20;;;;;;;7.57;5.87;;;16.60;87.40;;;19.15;62.20;102075.28;4916666;29;20202;-63
2022/10/27 00:09:47;;;;;;;7.70;5.67;;;16.50;87.30;;;19.14;62.35;102079.78;4916479;29;20600;-63
2022/10/27 00:12:14;;;;;;;9.53;6.07;;;16.50;87.50;;;19.11;62.71;102084.72;4916262;29;20278;-62
2022/10/27 00:14:41;;;;;;;7.57;6.17;;;16.50;87.60;;;19.08;62.53;102079.75;4905156;29;20227;-63
2022/10/27 00:17:08;;;;;;;8.77;6.90;;;16.50;87.70;;;19.05;62.58;102082.81;4897786;29;20207;-62
2022/10/27 00:19:35;;;;;;;8.43;6.20;;;16.50;87.70;;;19.03;62.96;102083.03;4897895;29;20203;-63
2022/10/27 00:22:02;;;;;;;7.20;6.17;;;16.40;87.70;;;19.02;62.74;102091.25;4898763;29;20223;-63
2022/10/27 00:24:30;;;;;;;8.40;6.70;;;16.40;87.80;;;19.02;62.82;102096.56;4916276;29;20555;-63
2022/10/27 00:26:57;;;;;;;7.43;6.10;;;16.40;87.80;;;18.99;62.79;102096.97;4915297;29;20652;-63
2022/10/27 00:29:24;;;;;;;7.43;6.13;;;16.40;87.90;;;18.98;62.81;102095.28;4916484;29;20203;-63
2022/10/27 00:31:51;;;;;;;7.13;5.53;;;16.40;87.90;;;18.98;63.03;102084.63;4919244;29;20218;-62
2022/10/27 00:34:18;;;;;;;6.23;5.53;;;16.40;87.90;;;18.99;62.78;102096.97;4919684;29;20218;-63
2022/10/27 00:36:45;;;;;;;7.10;5.67;;;16.40;87.90;;;18.98;62.77;102104.13;4920108;29;20198;-62
2022/10/27 00:39:12;;;;;;;7.07;5.87;;;16.30;87.90;;;18.93;63.03;102110.06;4919888;29;20250;-62
2022/10/27 00:41:42;;;;;;;6.80;6.10;;;16.30;87.90;;;18.91;62.65;102101.44;4919368;29;20229;-64
2022/10/27 00:44:35;;;;;;;6.57;5.93;;;16.30;87.90;;;18.82;62.74;102105.28;4920244;29;20250;-62
2022/10/27 00:47:12;;;;;;;9.10;5.97;;;16.30;88.00;;;18.82;62.95;102109.78;4920777;29;20182;-64
2022/10/27 00:49:46;;;;;;;8.13;5.50;;;16.30;87.90;;;18.80;62.84;102114.50;4920285;29;20246;-62
2022/10/27 00:52:23;;;;;;;8.30;5.40;;;16.30;87.90;;;18.76;63.24;102108.72;4919519;29;20223;-64
2022/10/27 00:54:54;;;;;;;6.63;4.90;;;16.30;88.00;;;18.79;63.11;102108.31;4919635;29;20226;-64
2022/10/27 00:57:23;;;;;;;6.30;5.20;;;16.30;88.00;;;18.77;62.98;102114.88;4919334;29;20198;-63
2022/10/27 00:59:50;;;;;;;9.37;5.33;;;16.20;88.00;;;18.75;63.30;102115.06;4919726;29;20656;-63
2022/10/27 01:02:17;;;;;;;6.00;4.40;;;16.20;88.10;;;18.76;63.12;102115.88;4919069;29;20233;-63
2022/10/27 01:04:51;;;;;;;6.50;5.20;;;16.20;88.20;;;18.78;62.94;102128.00;4919486;29;20198;-62
2022/10/27 01:07:20;;;;;;;8.00;5.27;;;16.20;88.30;;;18.79;63.21;102132.34;4919728;29;20186;-63
2022/10/27 01:09:48;;;;;;;7.23;6.17;;;16.20;88.30;;;18.78;63.35;102132.50;4921051;29;20660;-63
2022/10/27 01:12:15;;;;;;;8.13;5.33;;;16.30;88.40;;;18.77;63.18;102137.06;4919153;29;20246;-62
2022/10/27 01:14:44;;;;;;;6.17;5.07;;;16.20;88.30;;;18.76;63.11;102130.06;4917516;29;20367;-63
2022/10/27 01:17:31;;;;;;;6.67;5.30;;;16.20;88.30;;;18.71;63.16;102140.47;4919344;29;20247;-63
2022/10/27 01:21:02;;;;;;;5.80;5.00;;;16.20;88.30;;;18.67;63.39;102144.56;4919323;29;20210;-63
2022/10/27 01:23:45;;;;;;;5.80;5.23;;;16.30;88.40;;;18.70;63.37;102146.84;4919302;29;20246;-63
2022/10/27 01:26:46;;;;;;;6.33;5.73;;;16.30;88.20;;;18.67;63.40;102152.56;4918860;29;20582;-63
2022/10/27 01:29:40;;;;;;;5.50;4.97;;;16.30;88.20;;;18.66;63.32;102150.09;4918399;29;20218;-62
2022/10/27 01:32:25;;;;;;;6.70;5.10;;;16.30;88.20;;;18.67;63.46;102155.22;4918537;29;20223;-62
2022/10/27 01:35:01;;;;;;;5.73;4.60;;;16.20;88.00;;;18.69;63.27;102150.50;4919040;29;20215;-63
2022/10/27 01:37:39;;;;;;;6.27;5.30;;;16.20;88.00;;;18.73;63.45;102161.66;4919025;29;20333;-62
2022/10/27 01:40:17;;;;;;;9.63;5.23;;;16.20;88.10;;;18.70;63.23;102157.50;4919174;29;20648;-63
2022/10/27 01:42:49;;;;;;;5.70;4.60;;;16.20;88.10;;;18.69;63.31;102161.19;4917473;29;20278;-63
2022/10/27 01:45:26;;;;;;;6.40;5.17;;;16.20;88.10;;;18.66;63.31;102161.56;4918928;29;20218;-63
2022/10/27 01:47:56;;;;;;;6.03;4.97;;;16.20;88.30;;;18.67;63.42;102165.91;4918650;29;20190;-62
2022/10/27 01:50:29;;;;;;;7.97;5.10;;;16.20;88.30;;;18.69;63.11;102163.84;4899640;29;20629;-64
2022/10/27 01:53:16;;;;;;;9.87;4.80;;;16.20;88.30;;;18.70;63.37;102173.53;4898726;29;20381;-62
2022/10/27 01:55:57;;;;;;;8.03;4.77;;;16.20;88.30;;;18.68;63.15;102164.91;4916511;29;20278;-64
2022/10/27 01:58:59;;;;;;;7.23;4.80;;;16.20;88.50;;;18.65;63.23;102165.28;4918607;29;20642;-62
2022/10/27 02:01:51;;;;;;;5.10;4.33;;;16.20;88.50;;;18.68;63.32;102170.22;4916917;29;20214;-62
2022/10/27 02:04:32;;;;;;;5.57;4.93;;;16.20;88.40;;;18.69;63.39;102171.84;4918539;29;20187;-63
2022/10/27 02:07:12;;;;;;;10.77;5.23;;;16.20;88.50;;;18.69;63.38;102171.03;4919184;29;20258;-63
2022/10/27 02:09:45;;;;;;;7.33;5.00;;;16.20;88.50;;;18.67;63.56;102173.91;4919183;29;20194;-61
2022/10/27 02:12:24;;;;;;;6.23;4.93;;;16.10;88.50;;;18.66;63.37;102169.56;4919591;29;20222;-62
2022/10/27 02:14:55;;;;;;;5.87;4.80;;;16.10;88.50;;;18.65;63.50;102175.94;4911608;29;20309;-63
2022/10/27 02:17:27;;;;;;;8.07;5.17;;;16.10;88.50;;;18.66;63.20;102180.25;4919486;29;20246;-61
2022/10/27 02:19:58;;;;;;;5.40;4.83;;;16.10;88.40;;;18.66;63.30;102182.91;4919843;29;20191;-63
2022/10/27 02:22:30;;;;;;;8.30;5.40;;;16.10;88.40;;;18.66;63.42;102180.25;4918326;29;20222;-63
2022/10/27 02:24:57;;;;;;;5.67;5.00;;;16.10;88.50;;;18.67;63.53;102178.41;4919998;29;20221;-63
2022/10/27 02:27:35;;;;;;;6.87;4.60;;;16.10;88.50;;;18.66;63.37;102177.56;4918925;29;20202;-63
2022/10/27 02:30:05;;;;;;;5.53;4.57;;;16.10;88.50;;;18.67;63.41;102189.06;4920327;29;20644;-63
2022/10/27 02:32:33;;;;;;;6.17;5.20;;;16.10;88.50;;;18.67;63.25;102189.06;4919406;29;20574;-65
2022/10/27 02:35:04;;;;;;;6.50;4.77;;;16.10;88.60;;;18.66;63.24;102182.91;4903215;29;20219;-64
2022/10/27 02:37:37;;;;;;;6.27;4.87;;;16.10;88.60;;;18.68;63.30;102180.91;4901002;29;20195;-63
2022/10/27 02:40:06;;;;;;;7.00;5.23;;;16.10;88.50;;;18.69;63.43;102185.19;4912931;29;20254;-64
2022/10/27 02:42:33;;;;;;;6.83;5.33;;;16.10;88.50;;;18.68;63.15;102180.91;4920024;29;20767;-63
2022/10/27 02:45:00;;;;;;;6.80;5.13;;;16.10;88.60;;;18.67;63.29;102184.56;4920725;29;20238;-63
2022/10/27 02:47:27;;;;;;;6.40;5.00;;;16.10;88.60;;;18.65;63.62;102181.28;4919701;29;20198;-64
2022/10/27 02:49:54;;;;;;;7.37;5.20;;;16.10;88.60;;;18.65;63.58;102189.28;4919189;29;20202;-63
2022/10/27 02:52:23;;;;;;;6.47;4.17;;;16.10;88.60;;;18.65;63.52;102189.28;4918416;29;20237;-63
2022/10/27 02:54:50;;;;;;;5.83;5.13;;;16.10;88.60;;;18.66;63.45;102193.56;4918081;29;20270;-69
2022/10/27 02:57:17;;;;;;;7.13;5.00;;;16.10;88.60;;;18.66;63.25;102188.25;4918487;29;20210;-63
2022/10/27 02:59:45;;;;;;;8.73;5.27;;;16.10;88.70;;;18.65;63.55;102189.28;4917075;29;20201;-63
2022/10/27 03:02:18;;;;;;;9.37;6.07;;;16.10;88.80;;;18.63;63.39;102188.66;4918355;29;20695;-63
2022/10/27 03:04:46;;;;;;;9.13;5.30;;;16.10;88.70;;;18.62;63.56;102186.97;4917672;29;20271;-64
2022/10/27 03:07:13;;;;;;;9.67;5.80;;;16.10;88.60;;;18.63;63.44;102201.16;4917544;29;20202;-63
2022/10/27 03:09:41;;;;;;;5.97;5.17;;;16.00;88.60;;;18.62;63.33;102197.66;4916930;29;20266;-62
2022/10/27 03:12:08;;;;;;;7.37;5.17;;;16.00;88.70;;;18.60;63.44;102205.03;4916689;29;20245;-63
2022/10/27 03:14:35;;;;;;;7.63;5.83;;;16.10;88.80;;;18.59;63.61;102200.69;4905890;29;20672;-64
2022/10/27 03:17:02;;;;;;;7.43;5.50;;;16.00;88.70;;;18.55;63.67;102210.09;4898246;29;20195;-62
2022/10/27 03:19:29;;;;;;;7.90;5.90;;;16.00;88.80;;;18.54;63.80;102202.31;4909937;29;20253;-62
2022/10/27 03:21:57;;;;;;;7.17;5.10;;;16.00;88.80;;;18.52;63.70;102210.47;4916690;29;20226;-62
2022/10/27 03:24:24;;;;;;;7.87;5.53;;;16.00;88.80;;;18.51;63.92;102206.16;4922591;29;20202;-63
2022/10/27 03:26:53;;;;;;;7.43;5.20;;;16.00;88.80;;;18.49;63.79;102202.88;4916041;29;20206;-63
2022/10/27 03:29:20;;;;;;;8.17;4.90;;;16.00;88.90;;;18.48;63.81;102206.53;4916839;29;20259;-63
2022/10/27 03:31:46;;;;;;;7.20;6.00;;;16.00;89.00;;;18.48;63.80;102197.72;4916412;29;20657;-63
2022/10/27 03:34:13;;;;;;;7.33;5.33;;;16.00;89.00;;;18.48;63.74;102190.53;4916684;29;20202;-63
2022/10/27 03:36:47;;;;;;;7.20;5.57;;;15.90;88.80;;;18.49;63.91;102200.22;4916324;29;20226;-64
2022/10/27 03:39:14;;;;;;;9.93;5.87;;;15.90;88.90;;;18.48;63.61;102206.53;4898069;29;20204;-63
2022/10/27 03:41:41;;;;;;;7.40;5.33;;;15.90;88.90;;;18.46;63.83;102200.56;4905930;29;20242;-63
2022/10/27 03:44:09;;;;;;;6.87;5.37;;;15.90;88.90;;;18.47;63.82;102199.53;4916551;29;20202;-63
2022/10/27 03:46:36;;;;;;;7.10;5.10;;;15.90;88.80;;;18.47;63.72;102199.53;4916621;29;20190;-66
2022/10/27 03:49:03;;;;;;;5.83;5.23;;;15.90;88.80;;;18.48;63.65;102198.53;4916987;29;20202;-64
2022/10/27 03:51:30;;;;;;;5.60;5.00;;;15.90;88.80;;;18.50;63.43;102196.50;4916366;29;20687;-63
2022/10/27 03:53:57;;;;;;;7.47;4.70;;;15.90;88.80;;;18.51;63.30;102200.84;4917380;29;20202;-63
2022/10/27 03:56:24;;;;;;;9.90;5.63;;;15.90;88.80;;;18.50;63.27;102195.66;4916824;29;20222;-61
2022/10/27 03:58:51;;;;;;;6.67;5.27;;;15.90;88.70;;;18.50;63.18;102196.50;4917487;29;20205;-63
2022/10/27 04:01:19;;;;;;;6.27;4.90;;;15.90;88.60;;;18.48;63.01;102201.22;4916399;29;20218;-63
2022/10/27 04:03:47;;;;;;;8.47;6.33;;;15.90;88.60;;;18.45;63.11;102201.56;4917697;29;20230;-63
2022/10/27 04:06:14;;;;;;;8.10;5.63;;;15.80;88.50;;;18.40;63.34;102209.28;4920660;29;20253;-63
2022/10/27 04:08:41;;;;;;;11.87;6.40;;;15.80;88.60;;;18.32;63.79;102196.09;4923094;29;20222;-63
2022/10/27 04:11:08;;;;;;;8.63;6.63;;;15.80;88.80;;;18.26;63.94;102202.16;4922544;29;20697;-63
2022/10/27 04:13:35;;;;;;;7.53;5.80;;;15.70;88.80;;;18.20;63.96;102209.09;4922526;29;20207;-63
2022/10/27 04:16:03;;;;;;;11.27;6.20;;;15.70;88.80;;;18.18;64.11;102210.31;4921487;29;20214;-63
2022/10/27 04:18:31;;;;;;;7.30;6.50;;;15.70;89.00;;;18.16;63.72;102202.47;4921659;29;20651;-62
2022/10/27 04:21:02;;;;;;;8.20;6.63;;;15.70;89.00;;;18.15;64.03;102205.34;4920964;29;20250;-62
2022/10/27 04:23:30;;;;;;;6.80;5.90;;;15.70;89.10;;;18.15;64.17;102211.50;4921049;29;20202;-63
2022/10/27 04:25:58;;;;;;;7.27;5.77;;;15.60;89.00;;;18.18;64.02;102215.63;4920024;29;20283;-63
2022/10/27 04:28:25;;;;;;;6.70;6.10;;;15.60;89.10;;;18.21;63.63;102210.72;4921341;29;20202;-63
2022/10/27 04:30:52;;;;;;;8.70;6.30;;;15.60;89.10;;;18.22;63.72;102214.22;4920539;29;20222;-62
2022/10/27 04:33:19;;;;;;;8.83;6.17;;;15.60;89.00;;;18.23;63.67;102207.91;4921177;29;20231;-64
2022/10/27 04:35:50;;;;;;;7.47;5.73;;;15.60;89.10;;;18.23;63.54;102207.91;4920690;29;20211;-63
2022/10/27 04:38:17;;;;;;;10.67;6.73;;;15.60;89.10;;;18.24;63.56;102210.38;4920586;29;20245;-63
2022/10/27 04:40:45;;;;;;;9.30;6.57;;;15.60;89.00;;;18.25;63.46;102216.53;4919659;29;20234;-62
2022/10/27 04:43:11;;;;;;;8.47;6.13;;;15.60;89.10;;;18.25;63.52;102221.88;4921345;29;20199;-63
2022/10/27 04:45:41;;;;;;;9.77;6.57;;;15.60;89.10;;;18.28;63.48;102210.78;4921126;29;20194;-63
2022/10/27 04:48:08;;;;;;;10.10;6.50;;;15.60;89.20;;;18.32;63.38;102214.75;4918973;29;20761;-63
2022/10/27 04:50:35;;;;;;;7.33;5.50;;;15.60;89.30;;;18.38;63.38;102210.50;4920230;29;20272;-63
2022/10/27 04:53:03;;;;;;;6.20;5.60;;;15.60;89.40;;;18.43;63.18;102214.25;4919736;29;20203;-64
2022/10/27 04:55:32;;;;;;;8.03;6.53;;;15.60;89.40;;;18.48;63.08;102206.53;4921627;29;20218;-63
2022/10/27 04:58:00;;;;;;;8.60;6.50;;;15.70;89.40;;;18.51;62.92;102211.50;4923752;29;20309;-63
2022/10/27 05:00:32;;;;;;;7.70;7.00;;;15.70;89.20;;;18.54;62.76;102204.97;4921808;29;20690;-63
2022/10/27 05:02:59;;;;;;;7.53;6.30;;;15.70;88.90;;;18.55;62.78;102204.75;4920544;29;20214;-63
2022/10/27 05:05:28;;;;;;;8.40;7.60;;;15.70;88.80;;;18.57;62.58;102208.06;4920567;29;20254;-63
2022/10/27 05:07:59;;;;;;;12.90;6.50;;;15.70;88.50;;;18.54;62.64;102200.44;4920932;29;20198;-63
2022/10/27 05:10:28;;;;;;;7.63;6.83;;;15.80;88.50;;;18.53;62.54;102213.97;4920370;29;20203;-64
2022/10/27 05:12:56;;;;;;;10.50;7.77;;;15.80;88.40;;;18.47;62.58;102212.88;4919707;29;20579;-64
2022/10/27 05:15:23;;;;;;;10.23;7.30;;;15.80;88.30;;;18.45;62.75;102212.22;4903467;29;20223;-63
2022/10/27 05:17:50;;;;;;;9.93;7.63;;;15.80;88.30;;;18.45;62.77;102212.22;4903270;29;20262;-64
2022/10/27 05:20:18;;;;;;;11.03;7.13;;;15.70;88.20;;;18.46;62.51;102213.09;4920338;29;20194;-64
2022/10/27 05:22:45;;;;;;;6.97;6.27;;;15.70;88.30;;;18.46;62.67;102219.25;4920075;29;20369;-65
2022/10/27 05:25:13;;;;;;;9.37;7.23;;;15.70;88.30;;;18.44;62.83;102215.91;4919830;29;20191;-64
2022/10/27 05:27:42;;;;;;;11.23;8.90;;;15.70;88.30;;;18.41;62.65;102213.63;4920113;29;20258;-62
2022/10/27 05:30:11;;;;;;;8.97;8.00;;;15.70;88.10;;;18.36;62.64;102213.34;4922156;29;20560;-64
2022/10/27 05:32:39;;;;;;;11.00;8.50;;;15.70;88.20;;;18.31;62.75;102210.44;4919276;29;20241;-63
2022/10/27 05:35:13;;;;;;;9.23;6.57;;;15.70;88.00;;;18.28;62.86;102216.13;4919432;29;20201;-64
2022/10/27 05:37:43;;;;;;;9.50;7.17;;;15.70;88.30;;;18.29;62.98;102217.78;4919785;29;20294;-64
2022/10/27 05:40:11;;;;;;;11.17;8.53;;;15.60;88.40;;;18.30;63.07;102224.78;4920277;29;20183;-63
2022/10/27 05:42:38;;;;;;;11.17;7.70;;;15.60;88.40;;;18.28;62.92;102221.47;4919344;29;20628;-63
2022/10/27 05:45:08;;;;;;;10.97;8.17;;;15.60;88.30;;;18.27;62.80;102225.16;4922049;29;20262;-63
2022/10/27 05:47:35;;;;;;;11.30;7.90;;;15.60;88.30;;;18.27;63.07;102227.81;4921303;29;20191;-63
2022/10/27 05:50:02;;;;;;;11.80;8.43;;;15.60;88.40;;;18.29;62.85;102228.47;4919391;29;20672;-64
2022/10/27 05:52:29;;;;;;;9.40;8.37;;;15.60;88.40;;;18.29;62.90;102231.13;4912513;29;20238;-63
2022/10/27 05:54:56;;;;;;;10.80;8.43;;;15.60;88.60;;;18.31;62.82;102237.09;4900724;29;20192;-63
2022/10/27 05:57:23;;;;;;;8.70;7.87;;;15.60;88.60;;;18.33;62.77;102232.38;4898955;29;20696;-64
2022/10/27 05:59:50;;;;;;;13.47;9.17;;;15.60;88.60;;;18.34;62.74;102231.38;4900142;29;20200;-63
2022/10/27 06:02:19;;;;;;;10.50;9.17;;;15.60;88.60;;;18.32;62.83;102233.41;4911924;29;20234;-63
2022/10/27 06:04:46;;;;;;;9.47;8.57;;;15.60;88.40;;;18.32;62.82;102244.09;4919495;29;20667;-63
2022/10/27 06:07:13;;;;;;;10.83;9.50;;;15.60;88.40;;;18.31;62.63;102242.41;4919363;29;20209;-64
2022/10/27 06:09:40;;;;;;;12.37;9.40;;;15.60;88.30;;;18.29;62.76;102241.78;4919719;29;20634;-63
2022/10/27 06:12:07;;;;;;;11.40;10.20;;;15.60;88.30;;;18.28;62.99;102240.13;4918568;29;20230;-64
2022/10/27 06:14:34;;;;;;;11.20;10.10;;;15.60;88.30;;;18.30;62.99;102240.78;4919167;29;20213;-64
2022/10/27 06:17:01;;;;;;;11.40;9.20;;;15.60;89.30;;;18.35;62.86;102248.22;4919773;29;20229;-63
2022/10/27 06:19:29;;;;;;;9.60;8.63;;;15.60;88.50;;;18.36;62.33;102249.84;4917753;29;20202;-64
2022/10/27 06:21:57;;;;;;;11.23;9.83;;;15.70;88.30;;;18.34;62.38;102242.06;4919020;29;20215;-63
2022/10/27 06:24:24;;;;;;;12.93;9.43;;;15.60;88.10;;;18.33;62.38;102245.72;4918605;29;20198;-63
2022/10/27 06:26:52;;;;;;;12.73;8.97;;;15.60;88.00;;;18.32;62.46;102246.75;4917849;29;20194;-64
2022/10/27 06:29:22;;;;;;;11.80;8.87;;;15.60;88.00;;;18.32;62.47;102249.41;4918307;29;20205;-63
2022/10/27 06:31:49;;;;;;;13.70;10.23;;;15.60;88.00;;;18.32;62.56;102254.75;4920058;29;20278;-66
2022/10/27 06:34:16;;;;;;;17.17;12.87;;;15.60;88.20;;;18.36;62.65;102255.19;4918822;29;20198;-64
2022/10/27 06:36:45;;;;;;;18.27;12.37;;;15.60;88.50;;;18.42;62.77;102259.78;4918943;29;20217;-63
2022/10/27 06:39:12;;;;;;;15.07;9.80;;;15.60;88.50;;;18.45;62.89;102260.22;4918266;29;20540;-64
2022/10/27 06:41:39;;;;;;;17.27;10.40;;;15.70;88.70;;;18.53;62.49;102257.47;4918425;29;20223;-63
2022/10/27 06:44:06;;;;;;;10.77;9.10;;;15.70;88.70;;;18.56;62.40;102259.78;4920169;28;20312;-64
2022/10/27 06:46:35;;;;;;;10.50;9.40;;;15.80;88.50;;;18.59;61.96;102267.38;4918360;29;20250;-64
2022/10/27 06:49:02;;;;;;;11.90;10.33;;;15.80;88.20;;;18.61;61.85;102262.66;4910178;29;20513;-64
2022/10/27 06:51:29;;;;;;;12.03;9.57;;;15.80;87.80;;;18.61;61.81;102262.66;4898148;29;20215;-63
2022/10/27 06:53:57;;;;;;;11.23;9.57;;;15.80;87.60;;;18.60;61.75;102263.69;4900190;29;20537;-63
2022/10/27 06:56:24;;;;;;;12.43;10.77;;;15.80;87.40;;;18.56;61.80;102269.59;4899888;29;20222;-62
2022/10/27 06:58:51;;;;;;;13.47;10.70;;;15.80;87.10;;;18.51;61.71;102270.19;4904009;29;20275;-63
2022/10/27 07:01:20;;;;;;;12.10;10.17;;;15.80;87.10;;;18.46;61.84;102269.06;4918200;29;20214;-63
2022/10/27 07:03:49;;;;;;;14.13;10.57;;;15.80;87.00;;;18.42;61.83;102270.44;4917759;29;20317;-63
2022/10/27 07:06:16;;;;;;;12.47;11.17;;;15.70;86.90;;;18.40;61.98;102277.81;4921380;29;20222;-64
2022/10/27 07:08:43;;;;;;;13.43;10.97;;;15.70;87.10;;;18.37;61.89;102273.69;4919223;29;20258;-63
2022/10/27 07:11:11;;;;;;;14.67;11.50;;;15.70;87.10;;;18.33;61.92;102271.56;4917494;29;20226;-62
2022/10/27 07:13:38;;;;;;;12.57;10.37;;;15.70;87.10;;;18.29;62.05;102271.13;4917252;29;20213;-63
2022/10/27 07:16:07;;;;;;;13.27;10.17;;;15.60;87.00;;;18.27;62.02;102271.31;4917541;29;20218;-63
2022/10/27 07:18:34;;;;;;;10.70;9.60;;;15.60;87.20;;;18.27;62.15;102267.81;4917353;29;20199;-63
2022/10/27 07:21:01;;;;;;;11.90;9.83;;;15.60;87.40;;;18.27;62.31;102273.97;4917528;29;20702;-63
2022/10/27 07:23:28;;;;;;;12.67;10.63;;;15.60;87.60;;;18.27;62.13;102275.81;4917682;29;20631;-63
2022/10/27 07:25:55;;;;;;;10.03;8.53;;;15.60;87.60;;;18.30;62.41;102278.09;4916839;29;20221;-60
2022/10/27 07:28:23;;;;;;;13.13;10.63;;;15.60;87.70;;;18.32;62.23;102276.06;4917460;29;20596;-64
2022/10/27 07:30:54;;;;;;;14.03;9.50;;;15.60;87.90;;;18.35;62.19;102280.22;4917560;29;20249;-63
2022/10/27 07:33:22;;;;;;;17.37;11.00;;;15.60;88.00;;;18.37;62.34;102281.69;4917829;29;20281;-62
2022/10/27 07:35:51;;;;;;;12.43;9.53;;;15.60;87.90;;;18.38;62.24;102285.16;4918156;29;20202;-62
2022/10/27 07:38:19;;;;;;;14.57;10.27;;;15.60;87.90;;;18.43;62.34;102280.91;4917928;29;20599;-63
2022/10/27 07:40:46;;;;;;;12.13;9.80;;;15.70;88.10;;;18.47;62.45;102284.88;4917121;29;20698;-64
2022/10/27 07:43:13;;;;;;;13.20;10.07;;;15.70;88.00;;;18.53;62.10;102284.16;4918081;29;20206;-63
2022/10/27 07:45:42;;;;;;;9.90;8.67;;;15.70;88.10;;;18.59;62.07;102291.38;4905810;29;20278;-63
2022/10/27 07:48:13;;;;;;;11.03;8.90;;;15.80;88.30;;;18.69;62.10;102294.56;4896751;29;20314;-63
2022/10/27 07:50:40;;;;;;;11.53;9.43;;;15.80;88.40;;;18.81;62.22;102298.38;4897385;29;20222;-62
2022/10/27 07:53:08;;;;;;;11.33;9.80;;;15.90;88.60;;;18.96;61.75;102295.66;4897494;29;20623;-64
2022/10/27 07:55:36;;;;;;;10.10;9.10;;;16.00;88.50;;;19.11;61.63;102284.91;4897265;29;20204;-64
2022/10/27 07:58:07;;;;;;;10.50;8.20;;;16.10;88.50;;;19.26;61.55;102286.47;4914454;29;20293;-64
2022/10/27 08:00:38;;;;;;;9.47;8.00;;;16.30;88.60;;;19.44;61.49;102288.72;4915884;29;20277;-64
2022/10/27 08:03:10;;;;;;;11.97;8.77;;;16.40;88.50;;;19.60;60.74;102288.41;4915701;29;20686;-62
2022/10/27 08:05:37;;;;;;;9.60;8.47;;;16.60;88.00;;;19.71;60.72;102287.84;4916037;29;20189;-64
2022/10/27 08:08:06;;;;;;;8.23;7.10;;;16.70;87.40;;;19.79;60.03;102282.34;4916387;29;20265;-63
2022/10/27 08:10:37;;;;;;;9.30;7.57;;;16.80;86.80;;;19.89;59.71;102282.84;4915533;29;20194;-62
2022/10/27 08:13:05;;;;;;;8.97;8.03;;;17.00;86.50;;;19.98;59.87;102289.66;4916217;29;20220;-63
2022/10/27 08:15:34;;;;;;;12.00;7.50;;;17.00;85.80;;;20.05;59.12;102284.34;4915956;29;20214;-64
2022/10/27 08:18:02;;;;;;;8.53;7.57;;;17.10;85.50;;;20.14;59.52;102286.66;4915824;29;20262;-63
2022/10/27 08:20:35;;;;;;;10.43;7.77;;;17.20;85.50;;;20.21;58.65;102282.16;4915402;29;20220;-64
2022/10/27 08:23:05;;;;;;;8.17;7.30;;;17.30;84.80;;;20.27;58.99;102277.06;4916564;29;20253;-64
2022/10/27 08:25:33;;;;;;;10.60;7.03;;;17.40;84.50;;;20.30;58.79;102279.34;4915530;29;20290;-64
2022/10/27 08:28:00;;;;;;;9.77;7.40;;;17.40;84.20;;;20.33;58.86;102278.91;4915844;29;20194;-63
2022/10/27 08:30:30;;;;;;;9.00;7.50;;;17.50;84.00;;;20.38;58.73;102276.47;4916568;29;20228;-64
2022/10/27 08:33:03;;;;;;;11.97;6.97;;;17.60;84.00;;;20.46;58.56;102278.97;4916469;29;20523;-64
2022/10/27 08:35:33;;;;;;;9.50;7.07;;;17.60;83.90;;;20.61;58.20;102276.97;4916230;29;20262;-63
2022/10/27 08:38:03;;;;;;;8.40;6.67;;;17.70;84.30;;;20.70;57.40;102273.06;4916046;29;20222;-64
2022/10/27 08:40:43;;;;;;;11.77;7.00;;;17.80;83.20;;;20.82;57.21;102279.47;4915490;29;20187;-64
2022/10/27 08:43:59;;;;;;;8.40;6.67;;;17.90;82.80;;;20.90;57.24;102271.22;4916150;29;20202;-64
2022/10/27 08:46:37;;;;;;;11.20;6.80;;;18.00;82.60;;;21.11;56.53;102268.38;4915871;29;20183;-64
2022/10/27 08:49:20;;;;;;;7.50;6.10;;;18.10;82.00;;;21.32;56.23;102267.34;4915897;29;20190;-63
2022/10/27 08:51:52;;;;;;;8.40;6.17;;;18.20;82.30;;;21.50;55.81;102264.84;4917109;29;20214;-64
2022/10/27 08:54:23;;;;;;;9.93;5.57;;;18.40;81.60;;;21.62;55.52;102265.03;4919496;29;20261;-63
2022/10/27 08:56:58;;;;;;;7.97;6.83;;;18.50;81.20;;;21.59;55.48;102263.59;4918877;29;20308;-64
2022/10/27 08:59:29;;;;;;;7.53;6.07;;;18.60;80.40;;;21.66;55.00;102271.59;4906246;29;20230;-64
2022/10/27 09:02:18;;;;;;;9.30;6.80;;;18.60;80.40;;;21.68;54.99;102265.00;4923511;29;20631;-66
2022/10/27 09:05:19;;;;;;;7.83;6.37;;;18.80;81.10;;;21.70;54.74;102272.84;4913323;29;20217;-64
2022/10/27 09:08:05;;;;;;;8.13;6.97;;;18.80;79.70;;;21.79;54.95;102260.88;4918116;29;20210;-64
2022/10/27 09:10:42;;;;;;;8.80;6.03;;;18.90;80.00;;;21.86;54.74;102261.69;4917586;29;20209;-63
2022/10/27 09:13:38;;;;;;;8.97;5.37;;;19.00;79.50;;;22.12;54.66;102258.91;4919312;29;20294;-62
2022/10/27 09:16:12;;;;;;;8.43;5.80;;;19.10;80.00;;;22.58;53.65;102264.84;4914823;29;20210;-64
2022/10/27 09:18:47;;;;;;;7.33;5.60;;;19.20;79.50;;;23.08;52.80;102262.28;4909257;29;20233;-62
2022/10/27 09:21:20;;;;;;;6.23;5.63;;;19.40;79.30;;;23.58;51.72;102253.13;4912131;29;20583;-64
2022/10/27 09:23:51;;;;;;;10.83;6.63;;;19.70;79.20;;;23.96;50.91;102256.41;4917726;29;20206;-63
2022/10/27 09:26:25;;;;;;;7.10;4.80;;;20.00;78.30;;;24.25;50.24;102246.75;4915771;29;20305;-62
2022/10/27 09:28:54;;;;;;;6.40;4.47;;;20.30;77.40;;;24.42;49.83;102257.69;4910674;29;20690;-64
2022/10/27 09:31:43;;;;;;;8.47;5.63;;;20.50;76.60;;;24.44;48.93;102252.94;4906394;29;20320;-62
2022/10/27 09:34:18;;;;;;;7.17;4.80;;;20.70;75.10;;;24.44;48.20;102258.31;4916395;29;20198;-63
2022/10/27 09:36:45;;;;;;;6.63;4.90;;;20.80;74.00;;;24.37;48.71;102260.25;4917498;29;20257;-63
2022/10/27 09:39:14;;;;;;;10.53;5.10;;;20.90;73.30;;;24.27;48.86;102258.09;4921692;29;20206;-62
2022/10/27 09:41:43;;;;;;;6.77;4.33;;;21.00;73.20;;;24.18;49.27;102251.38;4923738;29;20225;-63
2022/10/27 09:44:19;;;;;;;5.10;4.43;;;21.00;72.90;;;24.11;48.81;102254.19;4918096;29;20202;-63
2022/10/27 09:46:52;;;;;;;8.80;4.73;;;21.00;73.00;;;24.06;49.12;102251.34;4913282;29;20233;-64
2022/10/27 09:49:28;;;;;;;7.63;4.57;;;21.00;72.90;;;24.01;49.21;102251.16;4908380;29;20210;-64
2022/10/27 09:52:02;;;;;;;5.83;4.27;;;21.00;72.80;;;23.99;49.78;102255.94;4915906;29;20662;-63
2022/10/27 09:54:34;;;;;;;4.93;4.43;;;21.00;73.30;;;24.04;50.22;102248.03;4915092;29;20210;-63
2022/10/27 09:57:05;;;;;;;7.23;5.00;;;21.00;73.50;;;24.00;49.68;102246.84;4917130;29;20250;-63
2022/10/27 09:59:35;;;;;;;5.37;4.47;;;21.10;73.00;;;23.96;49.62;102256.41;4917156;29;20203;-63
2022/10/27 10:02:05;;;;;;;5.47;4.13;;;21.10;72.80;;;23.85;50.02;102254.47;4916678;29;20698;-63
2022/10/27 10:04:41;;;;;;;5.47;4.53;;;21.10;72.80;;;23.84;50.40;102263.59;4931417;29;20195;-63
2022/10/27 10:07:36;;;;;;;9.40;4.60;;;21.20;72.90;;;23.81;50.41;102252.47;4920318;29;20216;-63
2022/10/27 10:10:17;;;;;;;7.73;4.23;;;21.20;72.90;;;23.79;50.10;102250.00;4916636;29;20195;-63
2022/10/27 10:12:44;;;;;;;6.40;4.23;;;21.20;72.70;;;23.80;50.30;102248.94;4916415;29;20245;-62
2022/10/27 10:15:18;;;;;;;8.07;4.93;;;21.20;72.50;;;23.75;50.35;102243.41;4913465;29;20201;-62
2022/10/27 10:17:55;;;;;;;6.23;4.63;;;21.20;72.80;;;23.74;50.62;102252.53;4919723;29;20571;-63
2022/10/27 10:20:34;;;;;;;5.13;4.17;;;21.20;72.80;;;23.71;50.50;102236.84;4910811;29;20219;-63
2022/10/27 10:23:05;;;;;;;7.43;4.37;;;21.20;72.90;;;23.74;50.76;102240.94;4905252;29;20191;-64
2022/10/27 10:25:46;;;;;;;5.00;4.53;;;21.10;73.00;;;23.63;50.98;102245.19;4903776;29;20195;-64
2022/10/27 10:28:26;;;;;;;6.60;4.37;;;21.10;73.20;;;23.52;51.29;102237.88;4913844;29;20194;-63